createdAt,value
2018-01-03T16:06:45.252Z,26.60
2018-01-03T16:07:45.088Z,26.53
2018-01-03T16:08:45.084Z,26.53
2018-01-03T16:09:45.079Z,26.53
2018-01-03T16:10:45.069Z,26.51
2018-01-03T16:11:45.069Z,26.51
2018-01-03T16:12:45.064Z,26.44
2018-01-03T16:13:45.062Z,26.36
2018-01-03T16:14:45.057Z,26.39
2018-01-03T16:15:45.054Z,26.27
2018-01-03T16:16:45.055Z,26.35
2018-01-03T16:17:45.043Z,26.34
2018-01-03T16:18:45.042Z,26.35
2018-01-03T16:19:45.044Z,26.29
2018-01-03T16:20:45.047Z,26.27
2018-01-03T16:21:45.035Z,26.36
2018-01-03T16:22:45.038Z,26.39
2018-01-03T16:23:45.037Z,26.41
2018-01-03T16:24:45.034Z,26.50
2018-01-03T16:25:45.032Z,26.53
2018-01-03T16:26:45.031Z,26.44
2018-01-03T16:27:45.030Z,26.51
2018-01-03T16:28:45.028Z,26.38
2018-01-03T16:29:45.030Z,26.32
2018-01-03T16:30:45.026Z,26.23
2018-01-03T16:31:45.025Z,26.20
2018-01-03T16:32:45.023Z,26.31
2018-01-03T16:33:45.022Z,26.34
2018-01-03T16:34:45.017Z,26.32
2018-01-03T16:35:45.021Z,26.28
2018-01-03T16:36:45.019Z,26.29
2018-01-03T16:37:45.018Z,26.29
2018-01-03T16:38:45.017Z,26.27
2018-01-03T16:39:45.017Z,26.29
2018-01-03T16:40:45.015Z,26.31
2018-01-03T16:41:45.014Z,26.28
2018-01-03T16:42:45.013Z,26.20
2018-01-03T16:43:45.012Z,26.20
2018-01-03T16:44:45.010Z,26.11
2018-01-03T16:45:45.009Z,26.00
2018-01-03T16:46:45.010Z,25.93
2018-01-03T16:47:45.007Z,25.72
2018-01-03T16:48:45.006Z,25.72
2018-01-03T16:49:44.999Z,25.66
2018-01-03T16:50:45.008Z,25.67
2018-01-03T16:51:45.002Z,25.66
2018-01-03T16:52:44.995Z,25.63
2018-01-03T16:53:44.998Z,25.63
2018-01-03T16:54:44.997Z,25.57
2018-01-03T16:55:44.992Z,25.60
2018-01-03T16:56:44.994Z,25.61
2018-01-03T16:57:44.993Z,25.66
2018-01-03T16:58:44.991Z,25.69
2018-01-03T16:59:44.986Z,25.64
2018-01-03T17:00:44.987Z,25.45
2018-01-03T17:01:44.986Z,25.45
2018-01-03T17:02:44.981Z,25.36
2018-01-03T17:03:44.984Z,25.44
2018-01-03T17:04:44.981Z,25.31
2018-01-03T17:05:44.980Z,25.24
2018-01-03T17:06:45.078Z,25.22
2018-01-03T17:07:44.977Z,25.08
2018-01-03T17:08:44.975Z,25.08
2018-01-03T17:09:44.973Z,25.01
2018-01-03T17:10:44.973Z,24.94
2018-01-03T17:11:44.969Z,25.05
2018-01-03T17:12:44.967Z,25.02
2018-01-03T17:13:44.961Z,24.97
2018-01-03T17:14:44.964Z,25.01
2018-01-03T17:15:44.958Z,24.94
2018-01-03T17:16:44.955Z,24.97
2018-01-03T17:17:44.958Z,24.83
2018-01-03T17:18:44.956Z,24.75
2018-01-03T17:19:44.953Z,24.60
2018-01-03T17:20:44.951Z,24.37
2018-01-03T17:21:44.949Z,24.33
2018-01-03T17:22:44.947Z,24.37
2018-01-03T17:23:44.945Z,24.16
2018-01-03T17:24:44.938Z,24.00
2018-01-03T17:25:44.935Z,23.96
2018-01-03T17:26:44.933Z,24.02
2018-01-03T17:27:44.940Z,24.08
2018-01-03T17:28:44.932Z,24.11
2018-01-03T17:29:44.929Z,24.11
2018-01-03T17:30:45.032Z,24.16
2018-01-03T17:31:44.924Z,24.16
2018-01-03T17:32:44.921Z,24.19
2018-01-03T17:33:44.918Z,24.19
2018-01-03T17:34:44.912Z,24.18
2018-01-03T17:35:44.910Z,24.09
2018-01-03T17:36:44.902Z,24.11
2018-01-03T17:37:44.900Z,23.97
2018-01-03T17:38:44.905Z,23.99
2018-01-03T17:39:44.898Z,24.11
2018-01-03T17:40:44.900Z,24.16
2018-01-03T17:41:44.897Z,24.19
2018-01-03T17:42:44.891Z,24.23
2018-01-03T17:43:44.889Z,24.14
2018-01-03T17:44:44.885Z,23.99
2018-01-03T17:45:44.883Z,24.06
2018-01-03T17:46:44.880Z,23.99
2018-01-03T17:47:44.882Z,23.69
2018-01-03T17:48:44.878Z,23.72
2018-01-03T17:49:44.876Z,23.69
2018-01-03T17:50:44.870Z,23.72
2018-01-03T17:51:44.871Z,23.89
2018-01-03T17:52:44.869Z,23.78
2018-01-03T17:53:44.865Z,23.79
2018-01-03T17:54:45.898Z,23.69
2018-01-03T17:55:44.857Z,23.69
2018-01-03T17:56:44.856Z,23.64
2018-01-03T17:57:44.849Z,23.68
2018-01-03T17:58:44.852Z,23.59
2018-01-03T17:59:44.843Z,23.52
2018-01-03T18:00:44.839Z,23.59
2018-01-03T18:01:44.832Z,23.54
2018-01-03T18:02:44.834Z,23.47
2018-01-03T18:03:46.036Z,23.39
2018-01-03T18:04:44.829Z,23.35
2018-01-03T18:05:44.824Z,23.37
2018-01-03T18:06:44.820Z,23.06
2018-01-03T18:07:44.812Z,23.12
2018-01-03T18:08:44.808Z,23.01
2018-01-03T18:09:44.805Z,22.88
2018-01-03T18:10:44.802Z,22.89
2018-01-03T18:11:44.803Z,22.89
2018-01-03T18:12:44.805Z,22.94
2018-01-03T18:13:44.795Z,22.88
2018-01-03T18:14:44.792Z,22.88
2018-01-03T18:15:44.788Z,22.96
2018-01-03T18:16:44.786Z,22.93
2018-01-03T18:17:44.780Z,22.93
2018-01-03T18:18:44.776Z,23.09
2018-01-03T18:19:44.773Z,23.07
2018-01-03T18:20:44.768Z,23.16
2018-01-03T18:21:44.765Z,23.14
2018-01-03T18:22:44.762Z,23.26
2018-01-03T18:23:44.759Z,23.31
2018-01-03T18:24:44.750Z,23.38
2018-01-03T18:25:44.747Z,23.49
2018-01-03T18:26:44.748Z,23.53
2018-01-03T18:27:44.746Z,23.62
2018-01-03T18:28:44.741Z,23.72
2018-01-03T18:29:44.734Z,23.74
2018-01-03T18:30:44.835Z,23.72
2018-01-03T18:31:44.728Z,23.75
2018-01-03T18:32:44.729Z,23.81
2018-01-03T18:33:44.721Z,23.81
2018-01-03T18:34:44.724Z,23.74
2018-01-03T18:35:44.720Z,23.72
2018-01-03T18:36:44.714Z,23.86
2018-01-03T18:37:44.714Z,23.93
2018-01-03T18:38:44.711Z,23.92
2018-01-03T18:39:44.704Z,24.08
2018-01-03T18:40:44.704Z,24.14
2018-01-03T18:41:44.697Z,24.11
2018-01-03T18:42:44.699Z,24.16
2018-01-03T18:43:44.696Z,24.27
2018-01-03T18:44:44.689Z,24.24
2018-01-03T18:45:44.692Z,24.29
2018-01-03T18:46:44.684Z,24.26
2018-01-03T18:47:44.682Z,24.27
2018-01-03T18:48:44.684Z,24.36
2018-01-03T18:49:44.680Z,24.41
2018-01-03T18:50:44.679Z,24.37
2018-01-03T18:51:44.676Z,24.36
2018-01-03T18:52:44.672Z,24.34
2018-01-03T18:53:44.666Z,24.34
2018-01-03T18:54:44.668Z,24.42
2018-01-03T18:55:44.661Z,24.30
2018-01-03T18:56:44.662Z,24.41
2018-01-03T18:57:44.660Z,24.51
2018-01-03T18:58:44.657Z,24.70
2018-01-03T18:59:44.655Z,24.53
2018-01-03T19:00:44.651Z,24.70
2018-01-03T19:01:44.655Z,24.51
2018-01-03T19:02:44.647Z,24.55
2018-01-03T19:03:44.645Z,24.53
2018-01-03T19:04:44.642Z,24.60
2018-01-03T19:05:44.643Z,24.52
2018-01-03T19:06:44.633Z,24.67
2018-01-03T19:07:44.636Z,24.68
2018-01-03T19:08:44.633Z,24.80
2018-01-03T19:09:44.630Z,24.90
2018-01-03T19:10:44.629Z,24.99
2018-01-03T19:11:44.621Z,25.04
2018-01-03T19:12:44.623Z,24.90
2018-01-03T19:13:44.621Z,24.97
2018-01-03T19:14:44.615Z,24.94
2018-01-03T19:15:44.616Z,24.89
2018-01-03T19:16:44.615Z,24.94
2018-01-03T19:17:44.612Z,24.97
2018-01-03T19:18:44.606Z,24.94
2018-01-03T19:19:44.604Z,24.82
2018-01-03T19:20:44.601Z,24.79
2018-01-03T19:21:44.604Z,24.44
2018-01-03T19:22:44.597Z,24.34
2018-01-03T19:23:44.599Z,24.33
2018-01-03T19:24:44.591Z,24.41
2018-01-03T19:25:44.589Z,24.33
2018-01-03T19:26:44.593Z,24.29
2018-01-03T19:27:44.585Z,24.18
2018-01-03T19:28:44.585Z,24.18
2018-01-03T19:29:44.579Z,24.14
2018-01-03T19:30:44.576Z,24.05
2018-01-03T19:31:44.578Z,24.14
2018-01-03T19:32:44.570Z,24.04
2018-01-03T19:33:44.567Z,23.99
2018-01-03T19:34:44.565Z,23.94
2018-01-03T19:35:44.562Z,23.93
2018-01-03T19:36:44.564Z,23.72
2018-01-03T19:37:44.560Z,23.74
2018-01-03T19:38:44.553Z,23.74
2018-01-03T19:39:44.550Z,23.72
2018-01-03T19:40:44.550Z,23.71
2018-01-03T19:41:44.544Z,23.67
2018-01-03T19:42:44.546Z,23.63
2018-01-03T19:43:44.543Z,23.59
2018-01-03T19:44:44.538Z,23.54
2018-01-03T19:45:44.535Z,23.42
2018-01-03T19:46:44.528Z,23.31
2018-01-03T19:47:44.525Z,23.44
2018-01-03T19:48:44.520Z,23.31
2018-01-03T19:49:44.517Z,23.26
2018-01-03T19:50:44.514Z,23.21
2018-01-03T19:51:44.516Z,23.15
2018-01-03T19:52:44.506Z,23.03
2018-01-03T19:53:44.502Z,23.01
2018-01-03T19:54:44.504Z,22.89
2018-01-03T19:55:44.500Z,22.85
2018-01-03T19:56:44.497Z,22.66
2018-01-03T19:57:44.492Z,22.72
2018-01-03T19:58:44.483Z,22.69
2018-01-03T19:59:44.480Z,22.67
2018-01-03T20:00:44.480Z,22.61
2018-01-03T20:01:44.476Z,22.57
2018-01-03T20:02:44.468Z,22.42
2018-01-03T20:03:44.464Z,22.44
2018-01-03T20:04:44.464Z,22.38
2018-01-03T20:05:44.459Z,22.35
2018-01-03T20:06:44.456Z,22.20
2018-01-03T20:07:44.447Z,22.20
2018-01-03T20:08:44.442Z,22.17
2018-01-03T20:09:44.442Z,22.14
2018-01-03T20:10:44.434Z,22.26
2018-01-03T20:11:44.430Z,22.27
2018-01-03T20:12:44.425Z,22.23
2018-01-03T20:13:44.424Z,22.11
2018-01-03T20:14:44.416Z,21.99
2018-01-03T20:15:44.413Z,22.02
2018-01-03T20:16:44.407Z,22.02
2018-01-03T20:17:44.404Z,22.14
2018-01-03T20:18:44.399Z,22.17
2018-01-03T20:19:44.399Z,22.12
2018-01-03T20:20:44.543Z,22.15
2018-01-03T20:21:44.390Z,22.31
2018-01-03T20:22:44.384Z,22.21
2018-01-03T20:23:44.384Z,22.35
2018-01-03T20:24:44.378Z,22.38
2018-01-03T20:25:44.370Z,22.39
2018-01-03T20:26:44.370Z,22.39
2018-01-03T20:27:44.366Z,22.27
2018-01-03T20:28:44.357Z,22.38
2018-01-03T20:29:44.352Z,22.26
2018-01-03T20:30:44.348Z,22.12
2018-01-03T20:31:44.345Z,22.30
2018-01-03T20:32:44.343Z,22.24
2018-01-03T20:33:44.339Z,22.39
2018-01-03T20:34:44.327Z,22.39
2018-01-03T20:35:44.331Z,22.39
2018-01-03T20:36:44.326Z,22.45
2018-01-03T20:37:44.314Z,22.44
2018-01-03T20:38:44.316Z,22.46
2018-01-03T20:39:44.309Z,22.41
2018-01-03T20:40:44.301Z,22.44
2018-01-03T20:41:44.300Z,22.27
2018-01-03T20:42:44.300Z,22.29
2018-01-03T20:43:44.296Z,22.36
2018-01-03T20:44:44.290Z,22.36
2018-01-03T20:45:44.284Z,22.31
2018-01-03T20:46:44.279Z,22.17
2018-01-03T20:47:44.278Z,22.12
2018-01-03T20:48:44.266Z,22.26
2018-01-03T20:49:44.270Z,22.19
2018-01-03T20:50:44.362Z,22.29
2018-01-03T20:51:44.258Z,22.31
2018-01-03T20:52:44.256Z,22.33
2018-01-03T20:53:44.252Z,22.24
2018-01-03T20:54:44.252Z,22.27
2018-01-03T20:55:44.240Z,22.27
2018-01-03T20:56:44.235Z,22.33
2018-01-03T20:57:44.227Z,22.30
2018-01-03T20:58:44.226Z,22.26
2018-01-03T20:59:44.222Z,22.20
2018-01-03T21:00:44.221Z,22.29
2018-01-03T21:01:44.217Z,22.30
2018-01-03T21:02:44.213Z,22.27
2018-01-03T21:03:44.204Z,22.29
2018-01-03T21:04:44.204Z,22.29
2018-01-03T21:05:44.199Z,22.30
2018-01-03T21:06:44.198Z,22.27
2018-01-03T21:07:44.186Z,22.09
2018-01-03T21:08:44.186Z,22.01
2018-01-03T21:09:44.177Z,22.11
2018-01-03T21:10:44.178Z,22.12
2018-01-03T21:11:44.170Z,22.11
2018-01-03T21:12:44.168Z,22.11
2018-01-03T21:13:44.159Z,22.12
2018-01-03T21:14:44.155Z,22.14
2018-01-03T21:15:44.150Z,22.14
2018-01-03T21:16:44.150Z,22.19
2018-01-03T21:17:44.141Z,22.14
2018-01-03T21:18:44.137Z,22.17
2018-01-03T21:19:44.136Z,22.11
2018-01-03T21:20:44.127Z,22.14
2018-01-03T21:21:44.123Z,21.99
2018-01-03T21:22:44.123Z,22.01
2018-01-03T21:23:44.118Z,22.02
2018-01-03T21:24:44.113Z,22.12
2018-01-03T21:25:44.105Z,22.08
2018-01-03T21:26:44.104Z,22.15
2018-01-03T21:27:44.100Z,22.04
2018-01-03T21:28:44.097Z,21.91
2018-01-03T21:29:44.086Z,21.96
2018-01-03T21:30:44.082Z,21.94
2018-01-03T21:31:44.084Z,21.93
2018-01-03T21:32:44.073Z,21.94
2018-01-03T21:33:44.068Z,21.93
2018-01-03T21:34:44.065Z,21.93
2018-01-03T21:35:44.055Z,21.93
2018-01-03T21:36:44.054Z,21.93
2018-01-03T21:37:44.049Z,21.96
2018-01-03T21:38:44.041Z,21.83
2018-01-03T21:39:44.036Z,21.79
2018-01-03T21:40:44.035Z,21.77
2018-01-03T21:41:44.026Z,21.74
2018-01-03T21:42:44.028Z,21.70
2018-01-03T21:43:44.017Z,21.82
2018-01-03T21:44:44.012Z,21.70
2018-01-03T21:45:44.011Z,21.86
2018-01-03T21:46:44.007Z,21.71
2018-01-03T21:47:44.003Z,21.70
2018-01-03T21:48:43.996Z,21.70
2018-01-03T21:49:43.992Z,21.71
2018-01-03T21:50:43.987Z,21.66
2018-01-03T21:51:43.983Z,21.66
2018-01-03T21:52:43.977Z,21.66
2018-01-03T21:53:43.973Z,21.66
2018-01-03T21:54:43.968Z,21.71
2018-01-03T21:55:43.963Z,21.67
2018-01-03T21:56:43.953Z,21.71
2018-01-03T21:57:43.948Z,21.68
2018-01-03T21:58:43.944Z,21.71
2018-01-03T21:59:43.943Z,21.68
2018-01-03T22:00:43.941Z,21.64
2018-01-03T22:01:43.933Z,21.64
2018-01-03T22:02:43.925Z,21.58
2018-01-03T22:03:43.920Z,21.63
2018-01-03T22:04:43.898Z,21.49
2018-01-03T22:05:43.893Z,21.53
2018-01-03T22:06:43.904Z,21.51
2018-01-03T22:07:43.884Z,21.51
2018-01-03T22:08:43.882Z,21.40
2018-01-03T22:09:43.873Z,21.43
2018-01-03T22:10:43.890Z,21.38
2018-01-03T22:11:43.868Z,21.37
2018-01-03T22:12:43.873Z,21.37
2018-01-03T22:13:43.857Z,21.37
2018-01-03T22:14:43.868Z,21.40
2018-01-03T22:15:43.859Z,21.43
2018-01-03T22:16:43.838Z,21.42
2018-01-03T22:17:43.837Z,21.46
2018-01-03T22:18:43.828Z,21.38
2018-01-03T22:19:43.824Z,21.40
2018-01-03T22:20:43.832Z,21.43
2018-01-03T22:21:43.815Z,21.42
2018-01-03T22:22:43.812Z,21.42
2018-01-03T22:23:43.822Z,21.38
2018-01-03T22:24:43.817Z,21.42
2018-01-03T22:25:43.796Z,21.36
2018-01-03T22:26:43.802Z,21.43
2018-01-03T22:27:43.802Z,21.37
2018-01-03T22:28:43.780Z,21.38
2018-01-03T22:29:43.791Z,21.38
2018-01-03T22:30:43.767Z,21.36
2018-01-03T22:31:43.766Z,21.36
2018-01-03T22:32:43.760Z,21.38
2018-01-03T22:33:43.766Z,21.33
2018-01-03T22:34:43.796Z,21.27
2018-01-03T22:35:43.746Z,21.33
2018-01-03T22:36:43.751Z,21.22
2018-01-03T22:37:43.734Z,21.28
2018-01-03T22:38:43.745Z,21.34
2018-01-03T22:39:43.740Z,21.33
2018-01-03T22:40:43.730Z,21.27
2018-01-03T22:41:43.733Z,21.31
2018-01-03T22:42:43.720Z,21.31
2018-01-03T22:43:43.724Z,21.30
2018-01-03T22:44:43.717Z,21.33
2018-01-03T22:45:43.704Z,21.24
2018-01-03T22:46:43.704Z,21.30
2018-01-03T22:47:43.698Z,21.33
2018-01-03T22:48:43.688Z,21.31
2018-01-03T22:49:43.691Z,21.22
2018-01-03T22:50:43.783Z,21.30
2018-01-03T22:51:43.674Z,21.28
2018-01-03T22:52:43.672Z,21.19
2018-01-03T22:53:43.664Z,21.18
2018-01-03T22:54:43.660Z,21.19
2018-01-03T22:55:43.659Z,21.24
2018-01-03T22:56:43.651Z,21.27
2018-01-03T22:57:43.646Z,21.30
2018-01-03T22:58:43.637Z,21.30
2018-01-03T22:59:43.636Z,21.22
2018-01-03T23:00:43.625Z,21.19
2018-01-03T23:01:43.624Z,21.28
2018-01-03T23:02:43.619Z,21.21
2018-01-03T23:03:43.615Z,21.27
2018-01-03T23:04:43.610Z,21.27
2018-01-03T23:05:43.608Z,21.30
2018-01-03T23:06:43.594Z,21.28
2018-01-03T23:07:43.597Z,21.28
2018-01-03T23:08:43.587Z,21.31
2018-01-03T23:09:43.582Z,21.16
2018-01-03T23:10:43.581Z,21.19
2018-01-03T23:11:43.572Z,21.18
2018-01-03T23:12:43.567Z,21.19
2018-01-03T23:13:43.561Z,21.22
2018-01-03T23:14:43.552Z,21.16
2018-01-03T23:15:43.555Z,21.15
2018-01-03T23:16:43.544Z,21.19
2018-01-03T23:17:43.535Z,21.08
2018-01-03T23:18:43.549Z,21.12
2018-01-03T23:19:43.525Z,21.08
2018-01-03T23:20:43.528Z,21.01
2018-01-03T23:21:43.513Z,20.94
2018-01-03T23:22:43.509Z,20.96
2018-01-03T23:23:43.513Z,20.87
2018-01-03T23:24:43.503Z,20.90
2018-01-03T23:25:43.496Z,20.88
2018-01-03T23:26:43.491Z,20.88
2018-01-03T23:27:43.490Z,20.88
2018-01-03T23:28:43.480Z,20.85
2018-01-03T23:29:43.474Z,20.87
2018-01-03T23:30:43.469Z,20.94
2018-01-03T23:31:43.465Z,20.94
2018-01-03T23:32:43.462Z,20.96
2018-01-03T23:33:43.448Z,20.96
2018-01-03T23:34:43.446Z,21.03
2018-01-03T23:35:43.445Z,21.01
2018-01-03T23:36:43.435Z,21.08
2018-01-03T23:37:43.436Z,21.13
2018-01-03T23:38:43.431Z,21.16
2018-01-03T23:39:43.424Z,21.08
2018-01-03T23:40:43.413Z,21.00
2018-01-03T23:41:43.408Z,20.93
2018-01-03T23:42:43.401Z,20.93
2018-01-03T23:43:43.401Z,20.96
2018-01-03T23:44:43.391Z,20.94
2018-01-03T23:45:43.382Z,20.98
2018-01-03T23:46:43.385Z,20.94
2018-01-03T23:47:43.376Z,20.94
2018-01-03T23:48:43.373Z,20.94
2018-01-03T23:49:43.364Z,20.98
2018-01-03T23:50:43.359Z,20.98
2018-01-03T23:51:43.354Z,20.97
2018-01-03T23:52:43.343Z,20.94
2018-01-03T23:53:43.338Z,20.96
2018-01-03T23:54:43.338Z,20.97
2018-01-03T23:55:43.328Z,21.01
2018-01-03T23:56:43.326Z,21.15
2018-01-03T23:57:43.320Z,21.00
2018-01-03T23:58:43.319Z,21.01
2018-01-03T23:59:43.310Z,21.01
